Tiempo atmosférico en la estación meteorológica de Manresa, Barcelona (291 m.)



Fecha
DESCASC
Temp. máxima en grados centígrados (hora)
DESCASC
Temp. mínima en grados centígrados (hora)
DESCASC
Temp. media en grados centígrados
DESCASC
Racha de viento máxima en m/sg (hora)
DESCASC
Velocidad máxima media en intervalos de 10 minutos(hora)
DESCASC
Precipitaciones diarias en mm
DESCASC
Precipitaciones de 00:00 a 06:00 en mm
DESCASC
Precipitaciones de 06:00 a 12:00 en mm
DESCASC
Precipitaciones de 12:00 a 18:00 en mm
DESCASC
Precipitaciones de 18:00 a 24:00 en mm
DESCASC
24-09-2020 26.6 (14:40) 14.5 (08:00) 20.6 10 (16:00) 5.83 (14:50) 0 0 0 0 0
23-09-2020 28.7 (16:10) 12.9 (00:00) 20.8 9.44 (18:10) 5 (16:20) 0 0 0 0 0
22-09-2020 26.5 (16:20) 15 (00:00) 20.8 8.33 (17:50) 4.72 (17:50) 0 0 0 0 0
21-09-2020 25.1 (16:40) 16.2 (00:00) 20.7 8.61 (17:00) 4.72 (17:00) 0.2 0 0 0.2 0
20-09-2020 27.6 (17:00) 16.2 (00:00) 21.9 7.78 (08:20) 4.44 (08:20) 0 0 0 0 0
19-09-2020 25.9 (18:00) 16.5 (00:00) 21.2 5.56 (19:00) 3.33 (19:30) 7.2 0 0.4 6.8 0
18-09-2020 23.8 (00:00) 18.8 (00:00) 21.3 5.56 (16:10) 3.06 (15:50) 4.6 0 0 4.6 0
17-09-2020 30.6 (16:10) 16 (00:00) 23.3 5.83 (17:50) 2.78 (16:30) 0 0 0 0 0
16-09-2020 31.4 (16:50) 16 (00:00) 23.7 6.67 (18:10) 3.89 (18:10) 0 0 0 0 0
15-09-2020 30.1 (15:50) 14.4 (00:00) 22.3 6.94 (17:20) 4.17 (17:10) 0 0 0 0 0
14-09-2020 31.7 (15:20) 14.4 (00:00) 23.1 8.33 (17:40) 4.17 (17:40) 0 0 0 0 0
13-09-2020 32.5 (15:50) 15.3 (00:00) 23.9 6.94 (18:00) 3.61 (17:20) 0 0 0 0 0
12-09-2020 32 (16:20) 15 (00:00) 23.5 7.78 (17:20) 4.17 (17:30) 0 0 0 0 0
11-09-2020 31.4 (17:30) 16.2 (00:00) 23.8 8.89 (18:40) 4.44 (18:00) 0 0 0 0 0
10-09-2020 28.8 (16:50) 13.7 (00:00) 21.2 13.61 (17:00) 6.39 (17:10) 0 0 0 0 0
09-09-2020 24.5 (17:10) 15.3 (00:00) 19.9 5 (17:20) 2.5 (13:50) 16.6 6.2 2.2 8 0.2
08-09-2020 27.4 (16:40) 10.6 (00:00) 19 8.89 (15:30) 4.17 (15:30) 0.4 0 0.2 0 0.2
07-09-2020 -- (--) -- (--) -- -- (--) -- (--) -- 0 0 0 --
06-09-2020 30.8 (16:50) 18.1 (00:00) 24.4 8.89 (20:00) 4.44 (20:00) 0 0 0 0 0
05-09-2020 31.3 (17:10) 16.2 (00:00) 23.8 8.89 (19:50) 4.72 (17:50) 0 0 0 0 0
04-09-2020 31.2 (17:30) 15.3 (00:00) 23.3 8.33 (19:10) 4.17 (19:30) 0 0 0 0 0
03-09-2020 29.3 (15:50) 14.6 (00:00) 21.9 10.28 (18:10) 4.72 (17:30) 0 0 0 0 0
02-09-2020 26.8 (16:20) 14.5 (00:00) 20.6 7.22 (18:10) 4.17 (18:40) 0 0 0 0 0
01-09-2020 26.5 (14:20) 12.3 (00:00) 19.4 8.61 (16:50) 3.89 (16:50) 0 0 0 0 0
31-08-2020 26.9 (17:20) 10.9 (00:00) 18.9 7.22 (14:00) 3.61 (14:00) 0 0 0 0 0
30-08-2020 26.1 (17:40) 11.2 (00:00) 18.7 8.33 (18:30) 3.89 (01:40) 0.2 0 0 0 0.2
29-08-2020 23.2 (18:20) 16.3 (00:00) 19.8 7.5 (19:00) 3.89 (19:00) 20.4 18.6 1.8 0 0
28-08-2020 31.5 (16:00) 19.7 (00:00) 25.6 10.56 (19:30) 5.28 (18:50) 3.2 0 0 0 3.2
27-08-2020 32.7 (15:10) 20.3 (00:00) 26.5 8.89 (18:50) 5 (17:30) 0 0 0 0 0
26-08-2020 34 (16:30) 20.5 (00:00) 27.3 9.17 (18:40) 5 (18:10) 0 0 0 0 0

Gráficas

Temp. máximas Temp. mínimas Temp. medias Precipitaciones Rachas de viento máximas Velocidades máximas media en intervalos de 10 minutos

Datos horarios

Fecha y hora oficial Temperatura (ºC) Velocidad del viento (km/h) Dirección del viento Racha (km/h) Dirección de racha Precipitación (mm) Presión (hPa) Tendencia (hPa) Humedad (%)
2020-09-24 23:00:00 19.7 7 Sudoeste 12 Sudoeste 0 976.5 0.6 63
2020-09-24 22:00:00 20.3 5 Sudoeste 10 Sur 0 976.5 -- 61
2020-09-24 21:00:00 21.3 4 Sur 17 Sudoeste 0 976 -- 55
2020-09-24 20:00:00 22.8 7 Sudoeste 20 Sudoeste 0 975.9 -- 50
2020-09-24 19:00:00 23.4 10 Oeste 25 Oeste 0 975.5 -- 46
2020-09-24 18:00:00 24.5 11 Oeste 25 Oeste 0 975.7 -- 45
2020-09-24 17:00:00 23.7 11 Sudoeste 31 Oeste 0 976.2 -- 45
2020-09-24 16:00:00 24.5 20 Oeste 36 Oeste 0 976.6 -- 38
2020-09-24 15:00:00 24.9 17 Oeste 33 Oeste 0 976.9 -- 39
2020-09-24 14:00:00 25.7 17 Oeste 33 Noroeste 0 977.2 -- 36
2020-09-24 13:00:00 24.9 5 Oeste 12 Noroeste 0 977.7 -- 46
2020-09-24 12:00:00 20.2 4 Norte 8 Noroeste 0 978.6 -- 66
2020-09-24 11:00:00 17.9 2 Nordeste 6 Nordeste 0 978.7 -- 74
2020-09-24 10:00:00 16.2 5 Norte 12 Nordeste 0 978.4 -- 80
2020-09-24 09:00:00 15.1 3 Nordeste 9 Este 0 978.6 -- 84
2020-09-24 08:00:00 14.5 4 Nordeste 11 Este 0 978.5 -- 86
2020-09-24 07:00:00 15 4 Nordeste 7 Norte 0 978.5 -- 85
2020-09-24 06:00:00 14.7 2 Noroeste 10 Nordeste 0 978.3 -- 85
2020-09-24 05:00:00 15.1 5 Nordeste 9 Nordeste 0 978.4 -- 85
2020-09-24 04:00:00 15.9 4 Nordeste 9 Nordeste 0 978.6 -- 82
2020-09-24 03:00:00 16.7 4 Nordeste 9 Nordeste 0 978.6 -- 79
2020-09-24 02:00:00 17.3 3 Nordeste 8 Nordeste 0 978.4 -- 77
2020-09-24 01:00:00 18.1 3 Este 9 Nordeste 0 978.7 -- 73
2020-09-24 00:00:00 19.3 0 Calma 9 Nordeste 0 978.4 -- 75
2020-09-23 23:00:00 20.6 0 Calma 11 Sur 0 978.4 -- 68
2020-09-23 22:00:00 22 6 Sur 13 Sur 0 977.7 -- 64
2020-09-23 21:00:00 23 6 Sur 17 Sudoeste 0 976.9 -- 60
2020-09-23 20:00:00 25.2 8 Oeste 30 Oeste 0 976.4 -- 38
2020-09-23 19:00:00 26.2 15 Oeste 34 Noroeste 0 976.4 -- 34
2020-09-23 18:00:00 27.2 16 Oeste 30 Oeste 0 976.2 -- 31
2020-09-23 17:00:00 28.3 16 Oeste 30 Noroeste 0 976.3 -- 29
2020-09-23 16:00:00 28.2 12 Oeste 29 Oeste 0 976.6 -- 29
2020-09-23 15:00:00 27.7 14 Oeste 25 Noroeste 0 977 -- 28
2020-09-23 14:00:00 26.3 6 Sudeste 14 Sur 0 977.8 -- 39
2020-09-23 13:00:00 23.5 4 Sur 9 Nordeste 0 978.5 -- 55
2020-09-23 12:00:00 21.3 4 Sudoeste 9 Sudoeste 0 979 -- 63
2020-09-23 11:00:00 18.2 3 Norte 8 Nordeste 0 979.2 -- 73
2020-09-23 10:00:00 15.7 5 Nordeste 8 Nordeste 0 979.1 -- 81
2020-09-23 09:00:00 13.5 3 Nordeste 5 Nordeste 0 979.1 -- 91
2020-09-23 08:00:00 13.1 0 Calma 6 Oeste 0 978.9 -- 90
2020-09-23 07:00:00 14 3 Nordeste 8 Nordeste 0 978.8 -- 90
2020-09-23 06:00:00 14.1 3 Nordeste 7 Oeste 0 978.8 -- 88
2020-09-23 05:00:00 14.2 3 Nordeste 6 Nordeste 0 979 -- 90
2020-09-23 04:00:00 14.8 3 Noroeste 5 Noroeste 0 979.2 -- 86
2020-09-23 03:00:00 15.3 0 Calma 10 Nordeste 0 979.6 -- 88
2020-09-23 02:00:00 16.1 4 Nordeste 9 Nordeste 0 979.5 -- 85
2020-09-23 01:00:00 17.2 2 Noroeste 7 Oeste 0 979.7 -- 80
2020-09-23 00:00:00 18.1 3 Norte 5 Norte 0 979.8 -- 77
2020-09-22 23:00:00 19.2 4 Oeste 13 Sudoeste 0 979.7 -- 73
2020-09-22 22:00:00 20.4 6 Sur 18 Sur 0 979.1 -- 67
2020-09-22 21:00:00 21.3 8 Sur 18 Sur 0 978.6 -- 63
2020-09-22 20:00:00 22.6 7 Sur 21 Sur 0 978.2 -- 58
2020-09-22 19:00:00 24 10 Sur 25 Sudeste 0 978.1 -- 54
2020-09-22 18:00:00 24.9 14 Sur 30 Sur 0 978.3 -- 48
2020-09-22 17:00:00 26.4 10 Sur 19 Sudoeste 0 978.7 -- 43
2020-09-22 16:00:00 26.1 8 Oeste 17 Sudoeste 0 979.2 -- 42
2020-09-22 15:00:00 24.8 5 Nordeste 16 Nordeste 0 980.1 -- 50
2020-09-22 14:00:00 23 8 Nordeste 16 Este 0 981.1 -- 59
2020-09-22 13:00:00 21.6 5 Nordeste 13 Nordeste 0 981.5 -- 64
2020-09-22 12:00:00 19.5 4 Nordeste 11 Nordeste 0 981.9 -- 73
2020-09-22 11:00:00 18.6 5 Nordeste 9 Nordeste 0 982 -- 77
2020-09-22 10:00:00 16.4 3 Oeste 8 Oeste 0 981.6 -- 86
2020-09-22 09:00:00 15 4 Nordeste 11 Este 0 981.5 -- 92
2020-09-22 08:00:00 15.1 4 Nordeste 5 Este 0 981.5 -- 92
2020-09-22 07:00:00 15.4 0 Calma 4 Sudoeste 0 981.5 -- 89
2020-09-22 06:00:00 16 2 Sudoeste 6 Sudoeste 0 981.6 -- 88
2020-09-22 05:00:00 16.1 4 Sudoeste 5 Sudoeste 0 982 -- 87
2020-09-22 04:00:00 16 2 Nordeste 4 Nordeste 0 982.3 -- 88
2020-09-22 03:00:00 16.1 3 Sudoeste 5 Oeste 0 982.6 -- 88
2020-09-22 02:00:00 16.2 4 Nordeste 11 Nordeste 0 983 -- 87
2020-09-22 01:00:00 15.9 7 Nordeste 12 Nordeste 0 983.1 -- 89
2020-09-22 00:00:00 16.2 5 Nordeste 7 Nordeste 0 983.1 -- 86
2020-09-21 23:00:00 17 3 Sur 12 Sudeste 0 983 -- 81
2020-09-21 22:00:00 17.7 4 Nordeste 10 Nordeste 0 983 -- 78
2020-09-21 21:00:00 18 6 Nordeste 19 Nordeste 0 982.5 -- 76
2020-09-21 20:00:00 19.1 7 Nordeste 30 Nordeste 0 982.4 -- 70
2020-09-21 19:00:00 21.9 6 Sudoeste 27 Sur 0 982 -- 67
2020-09-21 18:00:00 23 15 Sur 30 Sudoeste 0 981.4 -- 62
2020-09-21 17:00:00 24 17 Sur 31 Sur 0 981.2 -- 60
2020-09-21 16:00:00 24.3 15 Sur 29 Sudoeste 0 981.4 -- 57
2020-09-21 15:00:00 23.9 11 Sur 19 Sur 0 982 -- 56
2020-09-21 14:00:00 22.8 8 Sur 14 Sur 0.2 982.7 -- 61
2020-09-21 13:00:00 21.6 3 Este 6 Oeste 0 983.1 -- 64
2020-09-21 12:00:00 19.7 3 Oeste 5 Noroeste 0 983.4 -- 75
2020-09-21 11:00:00 18.4 2 Norte 5 Norte 0 983.3 -- 78
2020-09-21 10:00:00 17.5 2 Oeste 5 Nordeste 0 982.7 -- 81
2020-09-21 09:00:00 16.7 3 Norte 6 Noroeste 0 982.6 -- 84
2020-09-21 08:00:00 16.6 3 Sudoeste 6 Nordeste 0 982.4 -- 83
2020-09-21 07:00:00 16.7 2 Norte 7 Nordeste 0 982.1 -- 83
2020-09-21 06:00:00 16.9 3 Oeste 6 Nordeste 0 982.1 -- 79
2020-09-21 05:00:00 17.1 0 Calma 5 Norte 0 982.3 -- 78
2020-09-21 04:00:00 17.2 3 Norte 6 Nordeste 0 982.6 -- 77
2020-09-21 03:00:00 17.3 4 Nordeste 8 Norte 0 982.8 -- 81
2020-09-21 02:00:00 17.7 4 Norte 10 Nordeste 0 982.5 -- 78
2020-09-21 01:00:00 17.8 3 Oeste 8 Oeste 0 982.5 -- 75
2020-09-21 00:00:00 19.4 5 Oeste 8 Sur 0 982.4 -- 73
2020-09-20 23:00:00 20.3 3 Norte 14 Sur 0 982.4 -- 69
2020-09-20 22:00:00 21.4 6 Sur 12 Sur 0 981.7 -- 64
2020-09-20 21:00:00 22.5 8 Sur 15 Sur 0 981.1 -- 60
2020-09-20 20:00:00 25.1 6 Sur 16 Sur 0 980.5 -- 45
2020-09-20 19:00:00 27.1 6 Sudoeste 20 Oeste 0 980.3 -- 33
2020-09-20 18:00:00 27.3 9 Oeste 22 Noroeste 0 980 -- 34
2020-09-20 17:00:00 27.6 7 Noroeste 22 Noroeste 0 980.1 -- 32
2020-09-20 16:00:00 27.1 12 Oeste 28 Oeste 0 980.6 -- 36
2020-09-20 15:00:00 26.2 15 Oeste 28 Oeste 0 981.1 -- 36
2020-09-20 14:00:00 25.3 12 Oeste 27 Oeste 0 981.7 -- 38
2020-09-20 13:00:00 24.3 12 Oeste 24 Oeste 0 981.9 -- 45
2020-09-20 12:00:00 22.3 4 Norte 15 Norte 0 982 -- 59
2020-09-20 11:00:00 20.2 6 Nordeste 13 Nordeste 0 982 -- 65
2020-09-20 10:00:00 17.7 7 Nordeste 14 Nordeste 0 981.9 -- 75
2020-09-20 09:00:00 16.2 4 Nordeste 28 Oeste 0 981.6 -- 80
2020-09-20 08:00:00 17.4 11 Noroeste 23 Noroeste 0 981 -- 74
2020-09-20 07:00:00 17.8 14 Noroeste 27 Noroeste 0 980.9 -- 74
2020-09-20 06:00:00 18.4 14 Oeste 26 Noroeste 0 980.6 -- 70
2020-09-20 05:00:00 18.8 10 Noroeste 21 Oeste 0 980.6 -- 67
2020-09-20 04:00:00 18.5 5 Sudoeste 22 Noroeste 0 980.8 -- 68
2020-09-20 03:00:00 19.7 8 Oeste 19 Oeste 0 980.8 -- 62
2020-09-20 02:00:00 19.3 6 Oeste 13 Oeste 0 980.5 -- 64
2020-09-20 01:00:00 19.2 3 Sur 10 Oeste 0 980.3 -- 66
2020-09-20 00:00:00 19.8 3 Sudoeste 7 Sur 0 980.3 -- 69
2020-09-19 23:00:00 20.4 2 Noroeste 8 Sur 0 980.2 -- 74
2020-09-19 22:00:00 21.3 5 Sur 12 Sur 0 979.7 -- 76
2020-09-19 21:00:00 21.8 6 Sur 12 Sur 0 979.1 -- 75
2020-09-19 20:00:00 23.3 8 Sur 18 Sur 0 979 -- 68
2020-09-19 19:00:00 24.9 11 Sur 20 Sur 0 978.4 -- 61
2020-09-19 18:00:00 25.8 9 Sur 16 Sudoeste 0 978.3 -- 58
2020-09-19 17:00:00 25.5 8 Sur 15 Sudoeste 0 978.7 -- 60
2020-09-19 16:00:00 23.8 5 Sur 13 Sur 0.2 979.3 -- 74
2020-09-19 15:00:00 22.2 3 Este 12 Sudeste 0 980.1 -- 81
2020-09-19 14:00:00 22.7 4 Sudoeste 12 Este 5.4 980.5 -- 73
2020-09-19 13:00:00 22.1 3 Norte 11 Nordeste 1.2 981.3 -- 77
2020-09-19 12:00:00 21.5 4 Nordeste 10 Nordeste 0 981.6 -- 79
2020-09-19 11:00:00 20.1 3 Nordeste 8 Nordeste 0.2 981.7 -- 82
2020-09-19 10:00:00 17.6 3 Oeste 7 Sur 0.2 981.5 -- 91
2020-09-19 09:00:00 17 3 Noroeste 12 Nordeste 0 981.2 -- 92
2020-09-19 08:00:00 16.6 4 Este 10 Nordeste 0 981.1 -- 92
2020-09-19 07:00:00 16.8 0 Calma 6 Este 0 981.5 -- 92
2020-09-19 06:00:00 16.6 0 Calma 7 Este 0 981.5 -- 92
2020-09-19 05:00:00 16.8 4 Nordeste 6 Nordeste 0 981.8 -- 92
2020-09-19 04:00:00 17.3 3 Nordeste 6 Nordeste 0 982.5 -- 92
2020-09-19 03:00:00 17.8 0 Calma 9 Sudeste 0 982.7 -- 91
2020-09-19 02:00:00 18.4 3 Este 8 Oeste 0 982.8 -- 90
2020-09-19 01:00:00 19 3 Este 7 Norte 0 982.5 -- 86
2020-09-19 00:00:00 19.8 6 Este 13 Nordeste 0 982.8 -- 85
2020-09-18 23:00:00 20.3 2 Nordeste 6 Este 0 983.3 -- 86
2020-09-18 22:00:00 20.5 3 Nordeste 8 Sudeste 0 982.9 -- 85
2020-09-18 21:00:00 20.6 3 Oeste 11 Sudeste 0 982.8 -- 84
2020-09-18 20:00:00 21.2 3 Sudeste 11 Sudeste 0 981.8 -- 80
2020-09-18 19:00:00 22.1 3 Sudoeste 7 Sudeste 0 982.5 -- 73
2020-09-18 18:00:00 22 3 Este 11 Norte 0 982.9 -- 74
2020-09-18 17:00:00 21.4 6 Norte 20 Nordeste 0 983.4 -- 77
2020-09-18 16:00:00 19.6 8 Nordeste 19 Nordeste 0.6 983.9 -- 88
2020-09-18 15:00:00 18.9 8 Nordeste 12 Este 1.6 985.1 -- 88
2020-09-18 14:00:00 18.9 4 Este 9 Sudoeste 2.2 985.6 -- 87
2020-09-18 13:00:00 19.2 2 Norte 10 Oeste 0.2 985.3 -- 85
2020-09-18 12:00:00 19.5 3 Sudoeste 8 Nordeste 0 984.9 -- 78
2020-09-18 11:00:00 20 2 Norte 7 Nordeste 0 984.5 -- 71
2020-09-18 10:00:00 19.6 4 Nordeste 8 Nordeste 0 984 -- 72
2020-09-18 09:00:00 18.8 4 Nordeste 11 Nordeste 0 983.4 -- 75
2020-09-18 08:00:00 18.9 6 Nordeste 12 Nordeste 0 983.1 -- 75
2020-09-18 07:00:00 19.3 5 Nordeste 9 Nordeste 0 982.6 -- 77
2020-09-18 06:00:00 19.9 5 Nordeste 9 Nordeste 0 982.4 -- 74
2020-09-18 05:00:00 20.2 4 Nordeste 13 Nordeste 0 982.5 -- 73
2020-09-18 04:00:00 20.6 6 Nordeste 11 Nordeste 0 982.5 -- 72
2020-09-18 03:00:00 21.2 6 Nordeste 12 Nordeste 0 982.5 -- 72
2020-09-18 02:00:00 22.3 3 Nordeste 6 Nordeste 0 983.2 -- 62
2020-09-18 01:00:00 23.2 3 Norte 8 Sudoeste 0 983.1 -- 58
2020-09-18 00:00:00 23.8 4 Sudoeste 10 Sur 0 982.6 -- 54
2020-09-17 23:00:00 24.2 5 Sur 13 Sur 0 982.6 -- 58
2020-09-17 22:00:00 24.7 7 Sur 12 Sudoeste 0 982.2 -- 59
2020-09-17 21:00:00 25.6 6 Sur 15 Sur 0 981.9 -- 50
2020-09-17 20:00:00 26.8 7 Sur 21 Sur 0 981.5 -- 40
2020-09-17 19:00:00 27.9 7 Sur 18 Sur 0 981.5 -- 35
2020-09-17 18:00:00 28.7 10 Sur 21 Sur 0 981.4 -- 38
2020-09-17 17:00:00 29.9 9 Sur 19 Sur 0 981.6 -- 34
2020-09-17 16:00:00 30.2 5 Sur 12 Sur 0 982 -- 33
2020-09-17 15:00:00 29 6 Sur 13 Sur 0 982.7 -- 38
2020-09-17 14:00:00 27.3 3 Nordeste 9 Nordeste 0 983 -- 43
2020-09-17 13:00:00 23.7 3 Sur 9 Sur 0 983.5 -- 56
2020-09-17 12:00:00 20.6 3 Sudoeste 8 Sudoeste 0 984 -- 70
2020-09-17 11:00:00 18.5 3 Oeste 8 Norte 0 983.8 -- 78
2020-09-17 10:00:00 18.3 4 Nordeste 8 Nordeste 0 983.9 -- 80
2020-09-17 09:00:00 16.4 3 Nordeste 8 Nordeste 0 983.9 -- 88
2020-09-17 08:00:00 16 5 Nordeste 8 Norte 0 983.6 -- 90
2020-09-17 07:00:00 16.3 2 Norte 6 Nordeste 0 983.7 -- 90
2020-09-17 06:00:00 16.5 2 Noroeste 6 Nordeste 0 983.7 -- 89
2020-09-17 05:00:00 17.2 4 Nordeste 8 Nordeste 0 983.8 -- 90
2020-09-17 04:00:00 17.6 2 Norte 8 Nordeste 0 984.3 -- 89
2020-09-17 03:00:00 18.4 5 Nordeste 12 Este 0 984.5 -- 89
2020-09-17 02:00:00 19.1 2 Nordeste 8 Este 0 984.8 -- 86
2020-09-17 01:00:00 20 6 Nordeste 9 Nordeste 0 984.9 -- 84
2020-09-17 00:00:00 20.6 4 Nordeste 10 Nordeste 0 985 -- 82
2020-09-16 23:00:00 21.1 4 Nordeste 16 Este 0 984.9 -- 80
2020-09-16 22:00:00 22 6 Nordeste 18 Nordeste 0 984.6 -- 74
2020-09-16 21:00:00 22.8 12 Nordeste 23 Norte 0 984.1 -- 73
2020-09-16 20:00:00 26.8 6 Sur 19 Sudoeste 0 983.4 -- 53
2020-09-16 19:00:00 28.8 12 Sur 24 Sudoeste 0 983.7 -- 48
2020-09-16 18:00:00 30.1 12 Sur 23 Sur 0 983 -- 43
2020-09-16 17:00:00 30.9 13 Sur 23 Sur 0 983.3 -- 36
2020-09-16 16:00:00 31 11 Sur 23 Sur 0 983.8 -- 34
2020-09-16 15:00:00 30.5 11 Sudoeste 20 Sur 0 984.5 -- 36
2020-09-16 14:00:00 28.7 9 Sur 18 Sudoeste 0 985.1 -- 49
2020-09-16 13:00:00 27 4 Sudoeste 9 Nordeste 0 985.7 -- 52
2020-09-16 12:00:00 24.1 3 Sur 7 Nordeste 0 986.2 -- 62
2020-09-16 11:00:00 21.4 4 Nordeste 7 Norte 0 986.5 -- 69
2020-09-16 10:00:00 18.5 3 Oeste 5 Oeste 0 986.7 -- 82
2020-09-16 09:00:00 16.4 3 Oeste 6 Este 0 986.5 -- 89
2020-09-16 08:00:00 16 3 Norte 6 Norte 0 986.1 -- 90
2020-09-16 07:00:00 16.6 2 Nordeste 5 Nordeste 0 986 -- 88
2020-09-16 06:00:00 16.9 0 Calma 5 Nordeste 0 986 -- 88
2020-09-16 05:00:00 17.4 3 Nordeste 7 Norte 0 986.2 -- 87
2020-09-16 04:00:00 18.2 4 Nordeste 8 Nordeste 0 986.3 -- 86
2020-09-16 03:00:00 18.7 0 Calma 5 Nordeste 0 986.6 -- 85
2020-09-16 02:00:00 19.6 2 Nordeste 6 Nordeste 0 986.8 -- 81
2020-09-16 01:00:00 20.6 3 Nordeste 5 Noroeste 0 986.9 -- 78
2020-09-16 00:00:00 21.6 2 Sudeste 5 Sur 0 986.9 -- 80
2020-09-15 23:00:00 22.5 4 Sudoeste 12 Sur 0 986.9 -- 76
2020-09-15 22:00:00 23.5 5 Sur 15 Sur 0 986.6 -- 71
2020-09-15 21:00:00 24.6 6 Sur 19 Sur 0 985.8 -- 67
2020-09-15 20:00:00 26.5 9 Sur 22 Sur 0 985.5 -- 55
2020-09-15 19:00:00 27.9 13 Sur 25 Sur 0 985.3 -- 45
2020-09-15 18:00:00 29 13 Sur 25 Sur 0 985.3 -- 47
2020-09-15 17:00:00 29.7 11 Sur 24 Sur 0 985.4 -- 41
2020-09-15 16:00:00 29.1 12 Sur 23 Sudoeste 0 986 -- 44
2020-09-15 15:00:00 29.4 5 Sudoeste 15 Sur 0 986.5 -- 42
2020-09-15 14:00:00 28.3 4 Sur 10 Sudeste 0 987.1 -- 41
2020-09-15 13:00:00 25.5 4 Sur 11 Nordeste 0 988 -- 50
2020-09-15 12:00:00 22 6 Nordeste 11 Nordeste 0 988.4 -- 62
2020-09-15 11:00:00 19.9 4 Este 12 Sudoeste 0 988.4 -- 67
2020-09-15 10:00:00 16.7 5 Oeste 12 Nordeste 0 988 -- 80
2020-09-15 09:00:00 15 5 Este 9 Nordeste 0 987.9 -- 86
2020-09-15 08:00:00 14.5 4 Nordeste 7 Nordeste 0 987.9 -- 89
2020-09-15 07:00:00 14.8 3 Norte 8 Nordeste 0 988.2 -- 87
2020-09-15 06:00:00 15 4 Nordeste 8 Nordeste 0 988.5 -- 86
2020-09-15 05:00:00 15.7 3 Noroeste 6 Nordeste 0 989.1 -- 85
2020-09-15 04:00:00 16.3 3 Nordeste 6 Oeste 0 989.3 -- 82
2020-09-15 03:00:00 17.2 3 Noroeste 7 Nordeste 0 989.4 -- 77
2020-09-15 02:00:00 18 3 Norte 7 Nordeste 0 989.3 -- 78
2020-09-15 01:00:00 18.7 3 Nordeste 6 Oeste 0 989.2 -- 76
2020-09-15 00:00:00 20.5 3 Noroeste 9 Nordeste 0 989.1 -- 73
2020-09-14 23:00:00 21.8 3 Sudeste 5 Este 0 989 -- 67
2020-09-14 22:00:00 22.7 0 Calma 15 Sur 0 988.5 -- 62
2020-09-14 21:00:00 24.5 8 Sur 20 Sur 0 987.7 -- 54
2020-09-14 20:00:00 26.5 10 Sur 24 Sudoeste 0 987.5 -- 47
2020-09-14 19:00:00 28.4 12 Sur 25 Sudoeste 0 987.5 -- 41
2020-09-14 18:00:00 30 13 Sur 30 Sudoeste 0 987.6 -- 35
2020-09-14 17:00:00 31.1 13 Sur 27 Sudoeste 0 987.8 -- 31
2020-09-14 16:00:00 31.3 11 Sur 22 Sudeste 0 988.4 -- 27
2020-09-14 15:00:00 31.3 8 Sur 18 Sudoeste 0 989.1 -- 25
2020-09-14 14:00:00 29.8 8 Sur 12 Sur 0 989.6 -- 29
2020-09-14 13:00:00 27 3 Sudoeste 9 Oeste 0 990.2 -- 43
2020-09-14 12:00:00 24.1 4 Sur 7 Noroeste 0 990.8 -- 53
2020-09-14 11:00:00 20.9 2 Norte 6 Nordeste 0 990.9 -- 65
2020-09-14 10:00:00 17.7 3 Oeste 5 Oeste 0 990.9 -- 76
2020-09-14 09:00:00 14.8 2 Norte 5 Nordeste 0 990.8 -- 86
2020-09-14 08:00:00 14.5 2 Nordeste 6 Nordeste 0 990.2 -- 87
2020-09-14 07:00:00 14.9 3 Nordeste 5 Nordeste 0 990 -- 87
2020-09-14 06:00:00 15.5 2 Noroeste 5 Norte 0 990 -- 86
2020-09-14 05:00:00 16.1 2 Nordeste 4 Norte 0 990.2 -- 81
2020-09-14 04:00:00 16.9 3 Oeste 5 Oeste 0 990.4 -- 78
2020-09-14 03:00:00 17.8 0 Calma 6 Oeste 0 990.6 -- 77
2020-09-14 02:00:00 18.9 0 Calma 8 Norte 0 990.6 -- 72
2020-09-14 01:00:00 20.1 4 Nordeste 8 Norte 0 990.6 -- 68
2020-09-14 00:00:00 21.1 0 Calma 8 Nordeste 0 990.6 -- 62
2020-09-13 23:00:00 22.9 2 Sudeste 12 Sudoeste 0 990.3 -- 62
2020-09-13 22:00:00 24.7 7 Sur 16 Sur 0 989.6 -- 54
2020-09-13 21:00:00 26.1 4 Sudoeste 19 Sudeste 0 988.9 -- 42
2020-09-13 20:00:00 28.4 9 Sur 24 Sudoeste 0 988.5 -- 33
2020-09-13 19:00:00 30 12 Sur 23 Sur 0 988.3 -- 31
2020-09-13 18:00:00 31.1 13 Sur 25 Sudoeste 0 988.2 -- 30
2020-09-13 17:00:00 31.7 12 Sur 23 Sur 0 988.2 -- 30
2020-09-13 16:00:00 32.2 7 Sur 19 Sur 0 988.5 -- 29
2020-09-13 15:00:00 31.6 10 Sur 17 Sudoeste 0 988.7 -- 30
2020-09-13 14:00:00 30.1 8 Sur 17 Sudoeste 0 989.3 -- 31
2020-09-13 13:00:00 27.5 3 Sudeste 9 Oeste 0 990 -- 44
2020-09-13 12:00:00 24.6 3 Nordeste 8 Nordeste 0 990.4 -- 54
2020-09-13 11:00:00 21.7 3 Nordeste 6 Nordeste 0 990.3 -- 63
2020-09-13 10:00:00 18.4 2 Oeste 6 Nordeste 0 990 -- 76
2020-09-13 09:00:00 15.8 3 Noroeste 7 Oeste 0 989.6 -- 84
2020-09-13 08:00:00 15.4 4 Nordeste 6 Nordeste 0 989.1 -- 87
2020-09-13 07:00:00 15.6 2 Norte 5 Nordeste 0 988.7 -- 86
2020-09-13 06:00:00 16.2 2 Nordeste 5 Nordeste 0 988.6 -- 84
2020-09-13 05:00:00 16.7 3 Nordeste 7 Nordeste 0 988.5 -- 82
2020-09-13 04:00:00 17.3 3 Nordeste 6 Nordeste 0 988.4 -- 81
2020-09-13 03:00:00 18.1 2 Noroeste 7 Norte 0 988.6 -- 77
2020-09-13 02:00:00 19.1 4 Nordeste 9 Nordeste 0 988.6 -- 74
2020-09-13 01:00:00 20 3 Nordeste 8 Norte 0 988.6 -- 70
2020-09-13 00:00:00 21.1 4 Nordeste 6 Nordeste 0 988.3 -- 63
2020-09-12 23:00:00 22.5 4 Nordeste 7 Nordeste 0 987.7 -- 57
2020-09-12 22:00:00 23.8 3 Oeste 13 Sur 0 986.7 -- 50
2020-09-12 21:00:00 25.5 8 Sur 18 Sur 0 985.8 -- 43
2020-09-12 20:00:00 27.5 9 Sur 23 Sudoeste 0 985.1 -- 38
2020-09-12 19:00:00 28.8 12 Sur 26 Sur 0 984.7 -- 35
2020-09-12 18:00:00 29.9 13 Sur 28 Sur 0 984.4 -- 34
2020-09-12 17:00:00 31.6 10 Sur 23 Sudoeste 0 984.1 -- 31
2020-09-12 16:00:00 31.6 5 Sur 16 Sur 0 984.3 -- 29
2020-09-12 15:00:00 30.5 3 Sudeste 12 Sur 0 984.6 -- 31
2020-09-12 14:00:00 29.5 5 Sudoeste 10 Sudoeste 0 985.1 -- 34
2020-09-12 13:00:00 26.4 2 Norte 7 Nordeste 0 985.4 -- 44
2020-09-12 12:00:00 23.4 3 Nordeste 6 Noroeste 0 985.5 -- 55
2020-09-12 11:00:00 20.9 3 Nordeste 7 Nordeste 0 985.4 -- 65
2020-09-12 10:00:00 18 3 Nordeste 6 Nordeste 0 985.2 -- 79
2020-09-12 09:00:00 15.2 3 Noroeste 6 Nordeste 0 984.9 -- 89
2020-09-12 08:00:00 15.2 4 Nordeste 7 Nordeste 0 984.3 -- 89
2020-09-12 07:00:00 15.5 0 Calma 4 Norte 0 983.9 -- 88
2020-09-12 06:00:00 16.2 3 Nordeste 6 Nordeste 0 983.7 -- 87
2020-09-12 05:00:00 16.7 4 Nordeste 8 Nordeste 0 983.7 -- 84
2020-09-12 04:00:00 17 0 Calma 7 Nordeste 0 983.4 -- 85
2020-09-12 03:00:00 17.6 2 Norte 8 Nordeste 0 983.3 -- 82
2020-09-12 02:00:00 18.4 5 Nordeste 7 Nordeste 0 983.2 -- 80
2020-09-12 01:00:00 19.5 5 Nordeste 9 Nordeste 0 983.3 -- 74
2020-09-12 00:00:00 21 3 Nordeste 6 Este 0 983.1 -- 70
2020-09-11 23:00:00 21.8 3 Sudoeste 9 Sudoeste 0 983.1 -- 66
2020-09-11 22:00:00 23.1 7 Sur 13 Sur 0 982.5 -- 60
2020-09-11 21:00:00 24 7 Sur 19 Sur 0 981.6 -- 54
2020-09-11 20:00:00 25.9 9 Sur 25 Sudoeste 0 980.9 -- 45
2020-09-11 19:00:00 27.8 12 Sur 32 Sur 0 980.4 -- 36
2020-09-11 18:00:00 28.7 16 Sur 31 Nordeste 0 980 -- 34
2020-09-11 17:00:00 30.3 5 Nordeste 14 Sudeste 0 979.8 -- 27
2020-09-11 16:00:00 30.6 5 Oeste 17 Sur 0 980.1 -- 31
2020-09-11 15:00:00 29.6 9 Sur 16 Sudeste 0 980.2 -- 32
2020-09-11 14:00:00 27.7 5 Sudoeste 15 Oeste 0 980.9 -- 43
2020-09-11 13:00:00 25.4 3 Sudoeste 10 Nordeste 0 981.5 -- 50
2020-09-11 12:00:00 23.7 5 Nordeste 11 Nordeste 0 981.9 -- 58
2020-09-11 11:00:00 21.6 4 Nordeste 13 Nordeste 0 981.7 -- 67
2020-09-11 10:00:00 17.7 10 Nordeste 14 Este 0 981.5 -- 86
2020-09-11 09:00:00 16.7 4 Nordeste 6 Nordeste 0 981.4 -- 89
2020-09-11 08:00:00 16.3 3 Norte 8 Nordeste 0 981.1 -- 89
2020-09-11 07:00:00 16.7 4 Nordeste 8 Nordeste 0 981 -- 89
2020-09-11 06:00:00 16.8 3 Norte 8 Nordeste 0 981.1 -- 90
2020-09-11 05:00:00 16.9 3 Noroeste 6 Nordeste 0 981.3 -- 89
2020-09-11 04:00:00 17.2 2 Norte 6 Nordeste 0 981.5 -- 88
2020-09-11 03:00:00 17.3 2 Noroeste 6 Este 0 982 -- 87
2020-09-11 02:00:00 17.4 2 Sudoeste 5 Oeste 0 982.4 -- 86
2020-09-11 01:00:00 17.9 0 Calma 5 Norte 0 982.8 -- 86
2020-09-11 00:00:00 18.2 0 Calma 7 Oeste 0 983.2 -- 85
2020-09-10 23:00:00 18.5 5 Oeste 8 Nordeste 0 983.3 -- 83
2020-09-10 22:00:00 18.8 2 Nordeste 8 Oeste 0 983.5 -- 81
2020-09-10 21:00:00 19 2 Oeste 12 Oeste 0 983 -- 78
2020-09-10 20:00:00 19.6 4 Oeste 11 Oeste 0 982.8 -- 76
2020-09-10 19:00:00 20.2 4 Oeste 13 Oeste 0 982.9 -- 73
2020-09-10 18:00:00 20.8 4 Noroeste 47 Nordeste 0 983.1 -- 64
2020-09-10 17:00:00 25.6 19 Nordeste 49 Nordeste 0 982.5 -- 45
2020-09-10 16:00:00 28 5 Noroeste 12 Oeste 0 982.2 -- 34
2020-09-10 15:00:00 26.7 6 Sudoeste 12 Oeste 0 983.2 -- 41
2020-09-10 14:00:00 24.8 6 Norte 13 Nordeste 0 984.1 -- 56
2020-09-10 13:00:00 22.7 4 Este 12 Norte 0 984.8 -- 63
2020-09-10 12:00:00 19.9 4 Norte 8 Nordeste 0 985.2 -- 73
2020-09-10 11:00:00 16.8 4 Este 8 Norte 0 985.3 -- 85
2020-09-10 10:00:00 14.6 4 Nordeste 9 Norte 0 985.4 -- 93
2020-09-10 09:00:00 13.8 6 Nordeste 10 Nordeste 0 985.5 -- 95
2020-09-10 08:00:00 14.4 4 Nordeste 7 Norte 0 985.3 -- 95
2020-09-10 07:00:00 14.6 4 Nordeste 9 Nordeste 0 985.5 -- 95
2020-09-10 06:00:00 14.6 4 Norte 9 Este 0 985.8 -- 95
2020-09-10 05:00:00 14.8 4 Nordeste 9 Nordeste 0 985.9 -- 95
2020-09-10 04:00:00 15.2 5 Nordeste 10 Nordeste 0 985.8 -- 95
2020-09-10 03:00:00 15.2 5 Nordeste 8 Nordeste 0 986.2 -- 94
2020-09-10 02:00:00 15.7 5 Nordeste 8 Nordeste 0 986.5 -- 92
2020-09-10 01:00:00 16 2 Nordeste 5 Este 0 986.8 -- 90
2020-09-10 00:00:00 16.8 4 Este 6 Nordeste 0 987.2 -- 88
2020-09-09 23:00:00 16.9 3 Nordeste 6 Este 0 987.5 -- 87
2020-09-09 22:00:00 17.5 5 Nordeste 12 Nordeste 0 987.2 -- 88
2020-09-09 21:00:00 18.2 4 Nordeste 12 Nordeste 0 986.6 -- 88
2020-09-09 20:00:00 18.6 6 Nordeste 12 Nordeste 0 986.8 -- 87
2020-09-09 19:00:00 19.7 4 Sudoeste 8 Este 0.2 986.5 -- 75
2020-09-09 18:00:00 19.8 3 Sudeste 18 Sur 8 986.5 -- 79
2020-09-09 17:00:00 24.2 7 Sur 14 Oeste 0 986.2 -- 57
2020-09-09 16:00:00 22.9 6 Sur 15 Sur 0 986.4 -- 62
2020-09-09 15:00:00 23.9 4 Sur 15 Sur 0 986.6 -- 63
2020-09-09 14:00:00 21.5 9 Sur 16 Sudoeste 0 987.3 -- 73
2020-09-09 13:00:00 20.9 6 Sur 11 Sur 0 987.8 -- 77
2020-09-09 12:00:00 19.3 4 Norte 8 Oeste 0 988.3 -- 81
2020-09-09 11:00:00 17.6 3 Nordeste 6 Este 0 988.3 -- 86
2020-09-09 10:00:00 16.3 3 Nordeste 8 Este 0.2 987.8 -- 92
2020-09-09 09:00:00 15.7 4 Nordeste 8 Nordeste 2 987.6 -- 94
2020-09-09 08:00:00 15.5 0 Calma 6 Oeste 0 987.3 -- 94
2020-09-09 07:00:00 15.3 2 Nordeste 8 Este 0 987.3 -- 93
2020-09-09 06:00:00 15.4 2 Sudoeste 10 Norte 2 987.6 -- 92
2020-09-09 05:00:00 15.5 5 Norte 11 Norte 3.2 988.5 -- 91
2020-09-09 04:00:00 15.8 2 Nordeste 7 Nordeste 0.6 988.6 -- 90
2020-09-09 03:00:00 15.8 4 Nordeste 10 Norte 0.4 988.3 -- 88
2020-09-09 02:00:00 16 0 Calma 5 Nordeste 0 988.8 -- 87
2020-09-09 01:00:00 16.4 4 Nordeste 8 Nordeste 0 989 -- 84
2020-09-09 00:00:00 16.7 3 Nordeste 9 Oeste 0 989.3 -- 82
2020-09-08 23:00:00 17.4 3 Oeste 6 Oeste 0 989.4 -- 81
2020-09-08 22:00:00 17.9 2 Nordeste 8 Norte 0 989.2 -- 79
2020-09-08 21:00:00 18.5 5 Nordeste 19 Norte 0 989.1 -- 75
2020-09-08 20:00:00 19.2 7 Nordeste 21 Norte 0 989.3 -- 72
2020-09-08 19:00:00 20.6 7 Nordeste 25 Nordeste 0.2 989.2 -- 69
2020-09-08 18:00:00 25 13 Nordeste 31 Nordeste 0 988.5 -- 40
2020-09-08 17:00:00 26.2 15 Nordeste 26 Nordeste 0 987.9 -- 37
2020-09-08 16:00:00 26.3 12 Nordeste 32 Norte 0 987.9 -- 35
2020-09-08 15:00:00 25.1 10 Norte 18 Nordeste 0 988.5 -- 40
2020-09-08 14:00:00 21.9 6 Nordeste 13 Norte 0 989.2 -- 50
2020-09-08 13:00:00 19.1 4 Nordeste 10 Nordeste 0 989.7 -- 59
2020-09-08 12:00:00 18.4 4 Nordeste 9 Norte 0 990.1 -- 63
2020-09-08 11:00:00 14.7 4 Norte 9 Nordeste 0 990.1 -- 78
2020-09-08 10:00:00 13.8 8 Norte 11 Norte 0.2 989.9 -- 78
2020-09-08 09:00:00 11.2 4 Nordeste 10 Nordeste 0 989.7 -- 88
2020-09-08 08:00:00 10.7 5 Nordeste 12 Nordeste 0 989 -- 89
2020-09-08 07:00:00 11 6 Nordeste 13 Nordeste 0 988.7 -- 90
2020-09-08 06:00:00 11.3 6 Nordeste 9 Nordeste 0 988.4 -- 89
2020-09-08 05:00:00 11.9 6 Nordeste 10 Nordeste 0 988.5 -- 89
2020-09-08 04:00:00 12.5 5 Nordeste 9 Nordeste 0 988.5 -- 89
2020-09-08 03:00:00 13.2 4 Nordeste 7 Nordeste 0 988.4 -- 90
2020-09-08 02:00:00 13.7 3 Norte 10 Nordeste 0 988.4 -- 89
2020-09-08 01:00:00 14.6 5 Nordeste 8 Este 0 988.4 -- 90
2020-09-08 00:00:00 15.2 2 Sudeste 10 Sur 0 988.6 -- 87
2020-09-07 23:00:00 15.9 4 Sur 9 Sur 0 988.5 -- 85
2020-09-07 22:00:00 16.5 3 Oeste 10 Sur 0 987.9 -- 86
2020-09-07 21:00:00 17 7 Sur -- -- -- 986.3 -- 83
2020-09-07 20:00:00 -- -- -- -- -- -- -- -- --
2020-09-07 19:00:00 25 10 Sur 19 Sur 0 983.5 -- 37
2020-09-07 18:00:00 25.5 9 Sudoeste 19 Sudoeste 0 982.9 -- 34
2020-09-07 17:00:00 25.5 6 Sur 18 Sudoeste 0 983.1 -- 30
2020-09-07 16:00:00 24.9 8 Sur 20 Oeste 0 983.5 -- 31
2020-09-07 15:00:00 25.5 7 Sudoeste 21 Oeste 0 983.9 -- 32
2020-09-07 14:00:00 24.3 8 Oeste 18 Sur 0 984.4 -- 36
2020-09-07 13:00:00 22.7 7 Sudoeste 18 Sudoeste 0 984.6 -- 39
2020-09-07 12:00:00 21.4 4 Sudoeste 13 Oeste 0 984.9 -- 42
2020-09-07 11:00:00 20.1 5 Noroeste 15 Oeste 0 984.8 -- 49
2020-09-07 10:00:00 17.5 8 Oeste 17 Oeste 0 984.5 -- 56
2020-09-07 09:00:00 16.6 5 Oeste 15 Noroeste 0 984.3 -- 59
2020-09-07 08:00:00 16.4 6 Noroeste 15 Oeste 0 983.7 -- 60
2020-09-07 07:00:00 16.7 5 Norte 13 Norte 0 983.4 -- 58
2020-09-07 06:00:00 17.2 5 Noroeste 17 Oeste 0 983.1 -- 56
2020-09-07 05:00:00 17.5 8 Oeste 15 Oeste 0 983.3 -- 56
2020-09-07 04:00:00 18.2 6 Oeste 21 Oeste 0 982.9 -- 54
2020-09-07 03:00:00 19.6 7 Oeste 23 Oeste 0 982.6 -- 48
2020-09-07 02:00:00 21.2 9 Oeste 22 Oeste 0 982.4 -- 47
2020-09-07 01:00:00 21.9 4 Oeste 12 Sur 0 982.1 -- 74
2020-09-07 00:00:00 22.1 5 Sur 18 Sur 0 982.1 -- 75
2020-09-06 23:00:00 22.2 9 Sur 24 Sur 0 982.5 -- 72
2020-09-06 22:00:00 22.8 10 Sur 27 Sur 0 982.2 -- 67
2020-09-06 21:00:00 23.8 12 Sur 28 Sur 0 981.3 -- 62
2020-09-06 20:00:00 26.4 16 Sur 32 Sur 0 980.6 -- 46
2020-09-06 19:00:00 28.7 12 Sur 28 Sudoeste 0 980.3 -- 38
2020-09-06 18:00:00 29.5 13 Sur 26 Sudeste 0 980.4 -- 36
2020-09-06 17:00:00 30.6 8 Sur 30 Noroeste 0 980.8 -- 35
2020-09-06 16:00:00 29.7 13 Oeste 28 Oeste 0 981.4 -- 32
2020-09-06 15:00:00 28.9 12 Oeste 24 Oeste 0 982.1 -- 34
2020-09-06 14:00:00 27.8 5 Oeste 20 Oeste 0 982.8 -- 37
2020-09-06 13:00:00 25.7 9 Nordeste 17 Oeste 0 983.3 -- 44
2020-09-06 12:00:00 24.1 5 Noroeste 17 Noroeste 0 984 -- 51
2020-09-06 11:00:00 22.2 9 Oeste 20 Noroeste 0 984.1 -- 57
2020-09-06 10:00:00 20.8 6 Noroeste 12 Oeste 0 984 -- 64
2020-09-06 09:00:00 19.1 5 Oeste 19 Oeste 0 983.7 -- 72
2020-09-06 08:00:00 19 9 Noroeste 20 Noroeste 0 983.7 -- 73
2020-09-06 07:00:00 18.5 3 Norte 8 Norte 0 983.4 -- 84
2020-09-06 06:00:00 18.2 2 Nordeste 4 Este 0 983.6 -- 83
2020-09-06 05:00:00 18.4 0 Calma 4 Oeste 0 983.8 -- 80
2020-09-06 04:00:00 19.1 3 Sudoeste 8 Oeste 0 983.9 -- 78
2020-09-06 03:00:00 20 3 Sudoeste 7 Sudoeste 0 984.1 -- 76
2020-09-06 02:00:00 20.7 2 Sudoeste 8 Oeste 0 984.4 -- 74
2020-09-06 01:00:00 21.7 2 Sudoeste 4 Sudoeste 0 984.6 -- 73
2020-09-06 00:00:00 22.2 2 Sudoeste 10 Sudoeste 0 985 -- 71
2020-09-05 23:00:00 22.5 5 Sur 13 Sur 0 985 -- 69
2020-09-05 22:00:00 23.4 8 Sur 17 Sur 0 984.9 -- 64
2020-09-05 21:00:00 24.4 10 Sur 26 Sudoeste 0 984.4 -- 61
2020-09-05 20:00:00 26.2 14 Sur 32 Sudoeste 0 983.9 -- 54
2020-09-05 19:00:00 28 13 Sur 30 Sudoeste 0 983.8 -- 50
2020-09-05 18:00:00 29 15 Sur 30 Sur 0 983.7 -- 48
2020-09-05 17:00:00 31 5 Sur 16 Sudoeste 0 984 -- 33
2020-09-05 16:00:00 30.6 6 Sudoeste 15 Oeste 0 984.8 -- 34
2020-09-05 15:00:00 29.5 5 Sudoeste 15 Sudoeste 0 985.6 -- 34
2020-09-05 14:00:00 27.9 8 Sur 14 Sur 0 986.3 -- 32
2020-09-05 13:00:00 25.5 5 Noroeste 10 Oeste 0 986.9 -- 53
2020-09-05 12:00:00 23.7 5 Oeste 9 Sudoeste 0 987.6 -- 63
2020-09-05 11:00:00 21.7 4 Nordeste 8 Noroeste 0 987.9 -- 71
2020-09-05 10:00:00 18.6 3 Norte 8 Norte 0 987.9 -- 83
2020-09-05 09:00:00 16.9 4 Norte 8 Nordeste 0 987.8 -- 88
2020-09-05 08:00:00 16.2 0 Calma 7 Oeste 0 987.5 -- 88
2020-09-05 07:00:00 16.7 2 Oeste 6 Nordeste 0 987.4 -- 87
2020-09-05 06:00:00 17 2 Oeste 4 Oeste 0 987.5 -- 87
2020-09-05 05:00:00 17.5 2 Oeste 6 Norte 0 987.8 -- 86
2020-09-05 04:00:00 18.1 2 Nordeste 6 Nordeste 0 988.1 -- 84
2020-09-05 03:00:00 18.5 0 Calma 5 Noroeste 0 988.6 -- 82
2020-09-05 02:00:00 19.6 0 Calma 7 Oeste 0 988.9 -- 79
2020-09-05 01:00:00 21.1 3 Sur 7 Sur 0 989.1 -- 77
2020-09-05 00:00:00 21.7 2 Sur 9 Sudoeste 0 989.1 -- 74
2020-09-04 23:00:00 22.6 4 Sur 13 Sudeste 0 989 -- 69
2020-09-04 22:00:00 23.4 6 Sur 23 Sur 0 988.6 -- 62
2020-09-04 21:00:00 24.6 10 Sur 28 Sur 0 988 -- 56
2020-09-04 20:00:00 26.4 15 Sur 30 Sudoeste 0 987.8 -- 51
2020-09-04 19:00:00 28.3 13 Sur 27 Sudoeste 0 987.8 -- 46
2020-09-04 18:00:00 30.3 12 Sur 20 Sur 0 987.9 -- 36
2020-09-04 17:00:00 31.1 4 Sur 13 Sudoeste 0 988.4 -- 28
2020-09-04 16:00:00 30.5 7 Sudoeste 21 Sur 0 989.2 -- 29
2020-09-04 15:00:00 29.7 9 Sur 19 Sudoeste 0 990.1 -- 34
2020-09-04 14:00:00 28.3 9 Sur 16 Sudoeste 0 990.6 -- 36
2020-09-04 13:00:00 26.4 8 Sur 14 Sudoeste 0 991.2 -- 51
2020-09-04 12:00:00 24.2 3 Sur 8 Sudoeste 0 991.7 -- 60
2020-09-04 11:00:00 21.2 3 Sudoeste 6 Oeste 0 991.9 -- 70
2020-09-04 10:00:00 18.3 3 Noroeste 7 Nordeste 0 991.6 -- 82
2020-09-04 09:00:00 15.9 4 Norte 8 Norte 0 991.2 -- 90
2020-09-04 08:00:00 15.4 5 Nordeste 8 Nordeste 0 990.8 -- 91
2020-09-04 07:00:00 15.7 2 Nordeste 5 Oeste 0 990.3 -- 91
2020-09-04 06:00:00 16.1 2 Oeste 6 Sudoeste 0 990.1 -- 89
2020-09-04 05:00:00 16.7 4 Oeste 8 Sudoeste 0 990.2 -- 87
2020-09-04 04:00:00 17.6 3 Noroeste 8 Nordeste 0 990.4 -- 85
2020-09-04 03:00:00 17.9 2 Norte 12 Nordeste 0 990.9 -- 86
2020-09-04 02:00:00 18.7 8 Nordeste 11 Norte 0 990.9 -- 84
2020-09-04 01:00:00 19.5 5 Nordeste 9 Norte 0 990.8 -- 81
2020-09-04 00:00:00 20.4 3 Norte 6 Nordeste 0 990.4 -- 76
2020-09-03 23:00:00 21.4 2 Nordeste 8 Sudoeste 0 990.2 -- 73
2020-09-03 22:00:00 22.3 4 Sur 18 Sudoeste 0 989.7 -- 67
2020-09-03 21:00:00 23.4 8 Sur 22 Sur 0 988.9 -- 63
2020-09-03 20:00:00 24.9 12 Sur 26 Sur 0 988.2 -- 58
2020-09-03 19:00:00 26.2 13 Sur 37 Sudoeste 0 987.8 -- 53
2020-09-03 18:00:00 27.4 15 Sur 34 Sudoeste 0 987.4 -- 50
2020-09-03 17:00:00 27.9 14 Sur 28 Sur 0 987.3 -- 47
2020-09-03 16:00:00 28.9 13 Sur 27 Sudoeste 0 987.3 -- 41
2020-09-03 15:00:00 28.6 8 Sur 22 Sudoeste 0 987.8 -- 35
2020-09-03 14:00:00 27.4 6 Sur 18 Sudeste 0 988 -- 41
2020-09-03 13:00:00 25.6 4 Sur 12 Sur 0 988.3 -- 51
2020-09-03 12:00:00 23.4 4 Este 10 Nordeste 0 988.6 -- 62
2020-09-03 11:00:00 20.9 3 Norte 8 Este 0 988.7 -- 68
2020-09-03 10:00:00 18.2 4 Noroeste 9 Norte 0 988.2 -- 75
2020-09-03 09:00:00 15.2 2 Oeste 5 Oeste 0 987.9 -- 88
2020-09-03 08:00:00 14.7 3 Oeste 7 Oeste 0 987.4 -- 89
2020-09-03 07:00:00 15.4 3 Nordeste 6 Nordeste 0 987 -- 87
2020-09-03 06:00:00 15.5 2 Noroeste 6 Noroeste 0 986.6 -- 87
2020-09-03 05:00:00 16.1 3 Norte 6 Nordeste 0 986.5 -- 85
2020-09-03 04:00:00 16.4 3 Nordeste 7 Nordeste 0 986.6 -- 86
2020-09-03 03:00:00 16.5 3 Oeste 6 Oeste 0 986.6 -- 84
2020-09-03 02:00:00 17.2 0 Calma 7 Oeste 0 986.7 -- 83
2020-09-03 01:00:00 18.4 2 Oeste 5 Oeste 0 986.3 -- 79
2020-09-03 00:00:00 19.4 2 Este 6 Sudeste 0 985.7 -- 75
2020-09-02 23:00:00 20.2 2 Sur 12 Sur 0 985.3 -- 72
2020-09-02 22:00:00 21.2 6 Sur 16 Sur 0 984.6 -- 67
2020-09-02 21:00:00 22.4 8 Sur 18 Sur 0 983.5 -- 61
2020-09-02 20:00:00 24.4 10 Sur 22 Sudoeste 0 982.3 -- 51
2020-09-02 19:00:00 25.5 13 Sur 26 Sudoeste 0 982 -- 46
2020-09-02 18:00:00 26.4 12 Sur 24 Sudeste 0 981.6 -- 42
2020-09-02 17:00:00 26.2 13 Sur 24 Sudoeste 0 981.8 -- 42
2020-09-02 16:00:00 25.6 9 Sur 22 Sur 0 981.9 -- 46
2020-09-02 15:00:00 24.9 6 Sur 18 Sudeste 0 982.1 -- 45
2020-09-02 14:00:00 25.1 8 Sudeste 18 Sudeste 0 982.3 -- 46
2020-09-02 13:00:00 24.5 6 Sur 14 Sudoeste 0 982.7 -- 50
2020-09-02 12:00:00 22 4 Oeste 10 Oeste 0 983.3 -- 59
2020-09-02 11:00:00 19.1 3 Sudoeste 6 Sudoeste 0 983 -- 71
2020-09-02 10:00:00 16.8 4 Nordeste 7 Nordeste 0 982.7 -- 80
2020-09-02 09:00:00 15.2 3 Oeste 6 Oeste 0 982.4 -- 85
2020-09-02 08:00:00 14.6 3 Oeste 6 Nordeste 0 982.2 -- 87
2020-09-02 07:00:00 15 3 Noroeste 7 Oeste 0 981.8 -- 86
2020-09-02 06:00:00 15.7 0 Calma 7 Nordeste 0 981.3 -- 86
2020-09-02 05:00:00 16.4 4 Este 8 Este 0 981.1 -- 84
2020-09-02 04:00:00 16.6 2 Noroeste 8 Oeste 0 981.2 -- 83
2020-09-02 03:00:00 16.9 4 Oeste 7 Sur 0 981.2 -- 81
2020-09-02 02:00:00 17.4 2 Sudoeste 5 Sudeste 0 980.9 -- 80
2020-09-02 01:00:00 17.9 3 Oeste 5 Oeste 0 980.8 -- 76
2020-09-02 00:00:00 18.4 3 Oeste 7 Oeste 0 980.4 -- 73
2020-09-01 23:00:00 19.2 2 Norte 8 Norte 0 980.3 -- 69
2020-09-01 22:00:00 19.6 0 Calma 14 Sur 0 979.8 -- 63
2020-09-01 21:00:00 20.5 9 Sur 21 Sur 0 979 -- 62
2020-09-01 20:00:00 21.7 10 Sur 23 Sudoeste 0 978.6 -- 67
2020-09-01 19:00:00 23.6 12 Sur 26 Sudoeste 0 978.4 -- 60
2020-09-01 18:00:00 24.6 14 Sur 26 Sur 0 978.1 -- 55
2020-09-01 17:00:00 24.9 12 Sur 31 Sur 0 978.4 -- 51
2020-09-01 16:00:00 25.5 12 Sur 27 Sur 0 978.6 -- 46
2020-09-01 15:00:00 26.2 11 Sur 23 Sur 0 979.3 -- 38
2020-09-01 14:00:00 26.1 7 Sudeste 19 Sudeste 0 979.9 -- 39
2020-09-01 13:00:00 24.1 6 Sur 15 Sudoeste 0 980.7 -- 44
2020-09-01 12:00:00 21.3 3 Sudeste 9 Sudoeste 0 981.4 -- 53
2020-09-01 11:00:00 18.2 3 Nordeste 7 Oeste 0 981.7 -- 62
2020-09-01 10:00:00 15.7 4 Oeste 8 Noroeste 0 982 -- 69
2020-09-01 09:00:00 13.1 2 Noroeste 5 Nordeste 0 981.9 -- 81
2020-09-01 08:00:00 12.4 2 Noroeste 5 Oeste 0 981.8 -- 82
2020-09-01 07:00:00 12.5 3 Oeste 6 Oeste 0 981.7 -- 80
2020-09-01 06:00:00 13.5 0 Calma 5 Norte 0 982.1 -- 74
2020-09-01 05:00:00 14.1 0 Calma 9 Nordeste 0 982.6 -- 71
2020-09-01 04:00:00 14.7 3 Norte 9 Oeste 0 983.1 -- 67
2020-09-01 03:00:00 15.5 5 Nordeste 8 Nordeste 0 983.3 -- 63
2020-09-01 02:00:00 16 5 Norte 9 Norte 0 983.9 -- 59
2020-09-01 01:00:00 16.6 3 Norte 8 Norte 0 983.6 -- 67
2020-09-01 00:00:00 17 3 Oeste 7 Oeste 0 983.4 -- 54
2020-08-31 23:00:00 19 3 Sudoeste 10 Sur 0 983.1 -- 60
2020-08-31 22:00:00 20.3 4 Sudoeste 17 Sur 0 982.9 -- 53
2020-08-31 21:00:00 22.2 10 Sur 23 Sur 0 982.1 -- 45
2020-08-31 20:00:00 25.6 9 Oeste 21 Oeste 0 981.5 -- 21
2020-08-31 19:00:00 26.2 12 Oeste 23 Oeste 0 981.8 -- 21
2020-08-31 18:00:00 26.8 10 Oeste 19 Noroeste 0 981.8 -- 23
2020-08-31 17:00:00 26.2 9 Oeste 25 Oeste 0 982.4 -- 26
2020-08-31 16:00:00 25.8 11 Oeste 23 Oeste 0 983.1 -- 28
2020-08-31 15:00:00 24.8 11 Noroeste 22 Oeste 0 983.7 -- 31
2020-08-31 14:00:00 23.8 13 Oeste 26 Noroeste 0 984.4 -- 34
2020-08-31 13:00:00 21.4 5 Sudeste 13 Nordeste 0 985.2 -- 45
2020-08-31 12:00:00 19.5 6 Nordeste 12 Nordeste 0 985.3 -- 51
2020-08-31 11:00:00 17.6 6 Nordeste 12 Nordeste 0 985.3 -- 57
2020-08-31 10:00:00 15.3 5 Nordeste 11 Nordeste 0 985 -- 70
2020-08-31 09:00:00 11.6 5 Nordeste 10 Norte 0 984.4 -- 85
2020-08-31 08:00:00 10.9 3 Nordeste 11 Este 0 983.9 -- 89
2020-08-31 07:00:00 11.2 7 Nordeste 13 Nordeste 0 983.7 -- 89
2020-08-31 06:00:00 11.4 5 Norte 9 Nordeste 0 983.8 -- 89
2020-08-31 05:00:00 12.1 5 Nordeste 9 Nordeste 0 983.8 -- 88
2020-08-31 04:00:00 12.9 3 Este 10 Este 0 984 -- 86
2020-08-31 03:00:00 13.5 5 Nordeste 9 Nordeste 0 984.1 -- 85
2020-08-31 02:00:00 14.1 7 Nordeste 13 Este 0 984.1 -- 82
2020-08-31 01:00:00 14.5 5 Nordeste 14 Nordeste 0 983.5 -- 79
2020-08-31 00:00:00 15.7 4 Norte 21 Nordeste 0.2 983.4 -- 74
2020-08-30 23:00:00 18.1 13 Nordeste 25 Nordeste 0 983.2 -- 56
2020-08-30 22:00:00 19.9 9 Sur 18 Sur 0 981.5 -- 65
2020-08-30 21:00:00 20.8 9 Sur 21 Sudoeste 0 980.3 -- 58
2020-08-30 20:00:00 22.5 12 Sur 27 Sudoeste 0 979.3 -- 51
2020-08-30 19:00:00 23.6 13 Sur 30 Sur 0 978.7 -- 46
2020-08-30 18:00:00 25.7 8 Sudoeste 19 Oeste 0 978.5 -- 26
2020-08-30 17:00:00 24.2 6 Nordeste 18 Sur 0 978.6 -- 33
2020-08-30 16:00:00 24.8 7 Sudoeste 18 Sudoeste 0 978.8 -- 34
2020-08-30 15:00:00 24.1 9 Sur 15 Sudeste 0 979.1 -- 35
2020-08-30 14:00:00 22.8 4 Oeste 15 Este 0 979.4 -- 38
2020-08-30 13:00:00 20.7 5 Este 12 Noroeste 0 979.4 -- 49
2020-08-30 12:00:00 19 7 Nordeste 15 Nordeste 0 979.3 -- 57
2020-08-30 11:00:00 17.3 7 Nordeste 12 Nordeste 0 979.1 -- 61
2020-08-30 10:00:00 15.5 8 Nordeste 12 Nordeste 0 978.3 -- 68
2020-08-30 09:00:00 12 7 Nordeste 13 Norte 0 977.8 -- 86
2020-08-30 08:00:00 11.4 6 Nordeste 12 Nordeste 0 976.9 -- 90
2020-08-30 07:00:00 11.8 6 Nordeste 11 Nordeste 0 976.5 -- 90
2020-08-30 06:00:00 12.4 5 Nordeste 9 Nordeste 0 976 -- 89
2020-08-30 05:00:00 12.9 4 Este 14 Nordeste 0 975.4 -- 86
2020-08-30 04:00:00 13.7 5 Nordeste 13 Nordeste 0 975.2 -- 83
2020-08-30 03:00:00 14.9 6 Norte 18 Nordeste 0 975 -- 75
2020-08-30 02:00:00 15.8 10 Este 26 Nordeste 0 975.2 -- 68
2020-08-30 01:00:00 17 4 Nordeste 6 Norte 0 974.6 -- 82
2020-08-30 00:00:00 16.9 4 Sudoeste 8 Sudoeste 0 974.2 -- 80
2020-08-29 23:00:00 16.9 2 Nordeste 12 Sur 0 973.6 -- 81
2020-08-29 22:00:00 16.8 6 Sur 19 Sudoeste 0 972.5 -- 78
2020-08-29 21:00:00 17.5 12 Sur 24 Sudoeste 0 972 -- 76
2020-08-29 20:00:00 19 11 Sur 26 Sur 0 971.3 -- 72
2020-08-29 19:00:00 20.5 14 Sur 27 Sur 0 971.1 -- 53
2020-08-29 18:00:00 22.6 9 Sudoeste 20 Sudoeste 0 971.2 -- 47
2020-08-29 17:00:00 21.1 7 Oeste 16 Oeste 0 970.9 -- 56
2020-08-29 16:00:00 21.8 5 Nordeste 16 Nordeste 0 971 -- 53
2020-08-29 15:00:00 21.9 5 Nordeste 17 Nordeste 0 971.3 -- 52
2020-08-29 14:00:00 19.4 6 Nordeste 15 Oeste 0 971.7 -- 61
2020-08-29 13:00:00 19.4 8 Noroeste 15 Oeste 0 972.3 -- 57
2020-08-29 12:00:00 17.8 3 Norte 10 Oeste 0.2 972.1 -- 69
2020-08-29 11:00:00 17.9 4 Noroeste 17 Oeste 0 972 -- 68
2020-08-29 10:00:00 16.9 6 Nordeste 13 Nordeste 0 971.8 -- 83
2020-08-29 09:00:00 16.4 4 Nordeste 17 Norte 1.4 971.8 -- 90
2020-08-29 08:00:00 17 4 Norte 12 Este 0 971.7 -- 79
2020-08-29 07:00:00 17.3 3 Norte 11 Nordeste 0.2 971.3 -- 83
2020-08-29 06:00:00 17.4 3 Norte 13 Norte 1.8 970.9 -- 90
2020-08-29 05:00:00 18.7 6 Sudoeste 12 Oeste 1.2 971.4 -- 90
2020-08-29 04:00:00 19 5 Sudoeste 11 Oeste 0 971.6 -- 90
2020-08-29 03:00:00 19.3 3 Norte 12 Sudoeste 8.4 971.9 -- 91
2020-08-29 02:00:00 19.6 3 Sudeste 12 Oeste 1.8 971.6 -- 91
2020-08-29 01:00:00 19.6 5 Norte 14 Norte 5.4 972.2 -- 89
2020-08-29 00:00:00 19.7 10 Nordeste 28 Nordeste 0.2 971.7 -- 86
2020-08-28 23:00:00 21.7 12 Nordeste 32 Sur 3 972.5 -- 84
2020-08-28 22:00:00 24.6 13 Sur 35 Sudoeste 0 970.3 -- 70
2020-08-28 21:00:00 25.7 18 Sur 36 Sudoeste 0 970.8 -- 69
2020-08-28 20:00:00 27.6 14 Sur 38 Sudeste 0 970 -- 61
2020-08-28 19:00:00 29.8 15 Sur 32 Sur 0 970.5 -- 53
2020-08-28 18:00:00 30.5 15 Sur 31 Sudoeste 0 971 -- 47
2020-08-28 17:00:00 31.3 13 Sur 30 Sudoeste 0 971.6 -- 44
2020-08-28 16:00:00 31.4 9 Sudoeste 22 Sudoeste 0 972.4 -- 43
2020-08-28 15:00:00 29.1 4 Noroeste 17 Sudeste 0 973.5 -- 55
2020-08-28 14:00:00 30.4 7 Sur 18 Sur 0 974.1 -- 47
2020-08-28 13:00:00 28.5 6 Sur 18 Sudeste 0 975 -- 54
2020-08-28 12:00:00 28 5 Sur 11 Sur 0 975.6 -- 55
2020-08-28 11:00:00 25.3 4 Oeste 12 Nordeste 0 976.2 -- 72
2020-08-28 10:00:00 22.8 5 Nordeste 10 Norte 0 976.6 -- 82
2020-08-28 09:00:00 21.3 4 Este 10 Nordeste 0 976.9 -- 86
2020-08-28 08:00:00 20.9 5 Nordeste 7 Este 0 977.1 -- 89
2020-08-28 07:00:00 21 0 Calma 6 Oeste 0 977.3 -- 89
2020-08-28 06:00:00 20.9 4 Oeste 6 Nordeste 0 977.6 -- 89
2020-08-28 05:00:00 21.6 6 Nordeste 8 Nordeste 0 978.2 -- 87
2020-08-28 04:00:00 22.1 4 Nordeste 8 Nordeste 0 979 -- 86
2020-08-28 03:00:00 22.5 2 Este 5 Sudoeste 0 979.7 -- 85
2020-08-28 02:00:00 23.1 3 Oeste 8 Nordeste 0 980.2 -- 83
2020-08-28 01:00:00 23.9 2 Sudeste 10 Sudoeste 0 980.3 -- 81
2020-08-28 00:00:00 24.5 8 Sudoeste 16 Sur 0 980.8 -- 79
2020-08-27 23:00:00 25.2 6 Sur 21 Sur 0 980.9 -- 75
2020-08-27 22:00:00 26 9 Sur 22 Sudeste 0 980.6 -- 72
2020-08-27 21:00:00 27.2 12 Sur 26 Sudeste 0 980.1 -- 66
2020-08-27 20:00:00 29.3 13 Sur 30 Sudoeste 0 979.9 -- 56
2020-08-27 19:00:00 30.8 16 Sur 32 Sudoeste 0 980 -- 50
2020-08-27 18:00:00 31.7 17 Sur 31 Sur 0 980.4 -- 44
2020-08-27 17:00:00 32.7 15 Sur 30 Sudoeste 0 980.9 -- 43
2020-08-27 16:00:00 32.3 15 Sur 30 Sudoeste 0 981.8 -- 46
2020-08-27 15:00:00 32.5 10 Sur 23 Sur 0 982.6 -- 45
2020-08-27 14:00:00 31 10 Sur 22 Sur 0 983.1 -- 50
2020-08-27 13:00:00 29.6 10 Sur 19 Sudoeste 0 983.9 -- 53
2020-08-27 12:00:00 28.1 6 Sur 14 Sur 0 984.4 -- 61
2020-08-27 11:00:00 25.3 3 Sur 7 Sur 0 984.5 -- 71
2020-08-27 10:00:00 22.3 2 Sudoeste 7 Norte 0 984.5 -- 84
2020-08-27 09:00:00 21.2 5 Nordeste 8 Este 0 984.5 -- 83
2020-08-27 08:00:00 20.8 3 Nordeste 5 Norte 0 984.4 -- 87
2020-08-27 07:00:00 20.5 2 Norte 5 Norte 0 984.2 -- 86
2020-08-27 06:00:00 20.9 2 Nordeste 5 Nordeste 0 984.4 -- 85
2020-08-27 05:00:00 21.4 2 Norte 8 Nordeste 0 984.9 -- 84
2020-08-27 04:00:00 22.3 2 Nordeste 4 Nordeste 0 985.1 -- 82
2020-08-27 03:00:00 22.9 2 Este 6 Oeste 0 985.4 -- 83
2020-08-27 02:00:00 23.3 4 Oeste 12 Sudeste 0 985.7 -- 82
2020-08-27 01:00:00 24.3 7 Sur 20 Sudoeste 0 985.4 -- 81
2020-08-27 00:00:00 24.8 8 Sur 18 Sur 0 985.4 -- 78
2020-08-26 23:00:00 25.6 7 Sur 15 Sudoeste 0 985.1 -- 71
2020-08-26 22:00:00 26.4 7 Sur 19 Sur 0 984.2 -- 65
2020-08-26 21:00:00 27.6 10 Sur 28 Sudeste 0 983.4 -- 60
2020-08-26 20:00:00 29.8 13 Sur 32 Sudoeste 0 983 -- 52
2020-08-26 19:00:00 31.6 14 Sur 33 Sudoeste 0 982.9 -- 45
2020-08-26 18:00:00 32.5 17 Sur 31 Sudoeste 0 983.1 -- 43
2020-08-26 17:00:00 33.6 14 Sur 32 Sudoeste 0 983.4 -- 39
2020-08-26 16:00:00 33.5 13 Sur 27 Sudoeste 0 983.8 -- 41
2020-08-26 15:00:00 32.8 12 Sur 24 Sudeste 0 984.5 -- 43
2020-08-26 14:00:00 31.8 9 Sur 22 Sur 0 985.1 -- 43
2020-08-26 13:00:00 30.9 6 Sur 14 Sudeste 0 985.6 -- 44
2020-08-26 12:00:00 27.8 5 Sudoeste 9 Sudoeste 0 986 -- 59
2020-08-26 11:00:00 24.7 4 Sur 7 Sur 0 986.1 -- 72
2020-08-26 10:00:00 21.7 4 Norte 9 Norte 0 985.8 -- 86
2020-08-26 09:00:00 21.1 5 Oeste 8 Oeste 0 985.4 -- 81
2020-08-26 08:00:00 21 0 Calma 5 Oeste 0 985.1 -- 86
2020-08-26 07:00:00 20.5 5 Oeste 6 Oeste 0 984.6 -- 85
2020-08-26 06:00:00 21.1 3 Oeste 7 Sudoeste 0 984.5 -- 87
2020-08-26 05:00:00 21.4 4 Oeste 6 Oeste 0 984.7 -- 84
2020-08-26 04:00:00 21.6 0 Calma 5 Oeste 0 984.6 -- 85
2020-08-26 03:00:00 21.8 3 Oeste 7 Oeste 0 984.5 -- 84
2020-08-26 02:00:00 22.3 4 Oeste 7 Sudoeste 0 984.4 -- 82
2020-08-26 01:00:00 23.7 3 Oeste 8 Sur 0 984.2 -- 80
2020-08-26 00:00:00 24.7 4 Sudeste 14 Sur 0 984 -- 78